createdAt,value
2018-03-25T00:00:47.527Z,2.60
2018-03-25T00:05:50.070Z,2.60
2018-03-25T00:10:52.620Z,2.50
2018-03-25T00:15:55.175Z,2.40
2018-03-25T00:20:57.708Z,2.40
2018-03-25T00:26:00.356Z,2.40
2018-03-25T00:31:02.897Z,2.30
2018-03-25T00:36:06.219Z,2.20
2018-03-25T00:41:08.787Z,2.20
2018-03-25T00:46:11.325Z,2.10
2018-03-25T00:51:13.850Z,2.10
2018-03-25T00:56:16.398Z,2.00
2018-03-25T01:01:18.943Z,2.00
2018-03-25T01:06:21.481Z,2.00
2018-03-25T01:11:24.035Z,1.90
2018-03-25T01:16:26.579Z,1.80
2018-03-25T01:21:29.132Z,1.80
2018-03-25T01:26:31.683Z,1.70
2018-03-25T01:31:34.232Z,1.70
2018-03-25T01:36:36.774Z,1.70
2018-03-25T01:41:39.306Z,1.60
2018-03-25T01:46:41.859Z,1.60
2018-03-25T01:51:44.413Z,1.50
2018-03-25T01:56:46.956Z,1.50
2018-03-25T02:01:49.498Z,1.50
2018-03-25T02:06:52.078Z,1.40
2018-03-25T02:11:54.675Z,1.40
2018-03-25T02:16:57.220Z,1.30
2018-03-25T02:21:59.743Z,1.20
2018-03-25T02:27:02.312Z,1.20
2018-03-25T02:32:04.886Z,1.20
2018-03-25T02:37:07.426Z,1.10
2018-03-25T02:42:09.994Z,1.10
2018-03-25T02:47:12.571Z,1.00
2018-03-25T02:52:15.725Z,1.00
2018-03-25T02:57:18.271Z,1.00
2018-03-25T03:02:20.816Z,0.90
2018-03-25T03:07:23.376Z,0.90
2018-03-25T03:12:25.920Z,0.90
2018-03-25T03:17:28.472Z,0.80
2018-03-25T03:22:31.014Z,0.80
2018-03-25T03:27:33.560Z,0.70
2018-03-25T03:32:36.102Z,0.70
2018-03-25T03:37:38.666Z,0.70
2018-03-25T03:42:41.221Z,0.60
2018-03-25T03:47:43.770Z,0.60
2018-03-25T03:52:46.318Z,0.50
2018-03-25T03:57:48.949Z,0.50
2018-03-25T04:02:51.491Z,0.50
2018-03-25T04:07:54.825Z,0.40
2018-03-25T04:12:57.374Z,0.40
2018-03-25T04:17:59.943Z,0.40
2018-03-25T04:23:02.490Z,0.30
2018-03-25T04:28:05.083Z,0.30
2018-03-25T04:33:07.631Z,0.30
2018-03-25T04:38:10.202Z,0.30
2018-03-25T04:43:12.751Z,0.20
2018-03-25T04:48:15.308Z,0.20
2018-03-25T04:53:17.854Z,0.20
2018-03-25T04:58:20.410Z,0.10
2018-03-25T05:03:22.941Z,0.10
2018-03-25T05:08:25.518Z,0.10
2018-03-25T05:13:28.071Z,0.00
2018-03-25T05:18:30.617Z,0.00
2018-03-25T05:23:33.165Z,0.00
2018-03-25T05:28:35.704Z,0.00
2018-03-25T05:33:38.269Z,0.00
2018-03-25T05:38:41.587Z,0.00
2018-03-25T05:43:44.148Z,-0.10
2018-03-25T05:48:46.712Z,0.00
2018-03-25T05:53:49.252Z,0.00
2018-03-25T05:58:51.815Z,0.00
2018-03-25T06:03:54.380Z,0.10
2018-03-25T06:08:56.948Z,0.10
2018-03-25T06:13:59.504Z,0.20
2018-03-25T06:19:02.047Z,0.30
2018-03-25T06:24:04.606Z,0.30
2018-03-25T06:29:07.163Z,0.50
2018-03-25T06:34:10.482Z,0.70
2018-03-25T06:39:13.127Z,0.70
2018-03-25T06:44:15.687Z,0.90
2018-03-25T06:49:18.235Z,1.10
2018-03-25T06:54:20.791Z,1.30
2018-03-25T06:59:23.350Z,1.60
2018-03-25T07:04:26.004Z,1.90
2018-03-25T07:09:28.560Z,2.20
2018-03-25T07:14:31.118Z,2.60
2018-03-25T07:19:33.650Z,3.00
2018-03-25T07:24:36.210Z,3.30
2018-03-25T07:29:38.898Z,3.70
2018-03-25T07:34:41.467Z,4.00
2018-03-25T07:39:44.023Z,4.30
2018-03-25T07:44:46.583Z,4.60
2018-03-25T07:49:49.151Z,5.00
2018-03-25T07:54:51.711Z,5.40
2018-03-25T07:59:54.507Z,5.90
2018-03-25T08:04:57.043Z,6.40
2018-03-25T08:09:59.606Z,6.80
2018-03-25T08:15:02.168Z,7.10
2018-03-25T08:20:04.727Z,7.30
2018-03-25T08:25:07.291Z,7.70
2018-03-25T08:30:09.843Z,8.00
2018-03-25T08:35:12.424Z,8.20
2018-03-25T08:40:15.011Z,8.50
2018-03-25T08:45:19.139Z,9.00
2018-03-25T08:50:22.479Z,9.20
2018-03-25T08:55:25.033Z,9.20
2018-03-25T09:00:27.593Z,9.50
2018-03-25T09:05:30.147Z,9.60
2018-03-25T09:10:32.698Z,9.80
2018-03-25T09:15:35.257Z,9.90
2018-03-25T09:20:37.851Z,10.10
2018-03-25T09:25:40.422Z,10.10
2018-03-25T09:30:43.011Z,10.20
2018-03-25T09:35:45.567Z,10.30
2018-03-25T09:40:48.134Z,10.50
2018-03-25T09:45:50.736Z,10.50
2018-03-25T09:50:53.233Z,10.60
2018-03-25T09:55:55.792Z,10.30
2018-03-25T10:01:04.106Z,10.50
2018-03-25T10:06:06.646Z,10.60
2018-03-25T10:11:09.466Z,10.90
2018-03-25T10:16:12.029Z,11.00
2018-03-25T10:21:14.584Z,11.40
2018-03-25T10:26:17.136Z,11.60
2018-03-25T10:31:19.687Z,11.90
2018-03-25T10:36:22.250Z,12.10
2018-03-25T10:41:25.283Z,12.20
2018-03-25T10:46:27.851Z,12.40
2018-03-25T10:51:31.165Z,12.90
2018-03-25T10:56:34.496Z,13.20
2018-03-25T11:01:37.032Z,13.10
2018-03-25T11:06:39.592Z,13.40
2018-03-25T11:11:42.162Z,13.70
2018-03-25T11:16:44.690Z,13.90
2018-03-25T11:21:47.271Z,14.20
2018-03-25T11:26:49.843Z,14.40
2018-03-25T11:31:52.388Z,14.60
2018-03-25T11:36:54.950Z,14.80
2018-03-25T11:41:57.522Z,15.00
2018-03-25T11:47:00.067Z,15.10
2018-03-25T11:52:03.382Z,15.30
2018-03-25T11:57:05.944Z,15.30
2018-03-25T12:02:09.452Z,15.40
2018-03-25T12:07:11.995Z,15.50
2018-03-25T12:12:14.538Z,15.70
2018-03-25T12:17:17.105Z,15.80
2018-03-25T12:22:20.413Z,16.00
2018-03-25T12:27:22.957Z,16.00
2018-03-25T12:32:25.517Z,16.10
2018-03-25T12:37:28.834Z,16.40
2018-03-25T12:42:31.406Z,16.40
2018-03-25T12:47:33.954Z,16.60
2018-03-25T12:52:36.526Z,16.80
2018-03-25T12:57:39.888Z,16.70
2018-03-25T13:02:42.453Z,16.70
2018-03-25T13:07:45.051Z,16.80
2018-03-25T13:12:47.615Z,16.80
2018-03-25T13:17:50.163Z,16.90
2018-03-25T13:22:52.706Z,16.90
2018-03-25T13:27:55.270Z,17.00
2018-03-25T13:32:57.818Z,17.10
2018-03-25T13:38:00.354Z,17.20
2018-03-25T13:43:02.907Z,17.20
2018-03-25T13:48:05.465Z,17.20
2018-03-25T13:53:08.028Z,17.20
2018-03-25T13:58:10.578Z,17.30
2018-03-25T14:03:13.144Z,17.30
2018-03-25T14:08:15.694Z,17.30
2018-03-25T14:13:18.259Z,17.40
2018-03-25T14:18:20.808Z,17.40
2018-03-25T14:23:23.370Z,17.40
2018-03-25T14:28:25.938Z,17.30
2018-03-25T14:33:28.474Z,17.30
2018-03-25T14:38:31.024Z,17.30
2018-03-25T14:43:33.578Z,17.20
2018-03-25T14:48:36.121Z,17.10
2018-03-25T14:53:39.434Z,16.90
2018-03-25T14:58:41.981Z,16.80
2018-03-25T15:03:44.591Z,16.80
2018-03-25T15:08:47.133Z,16.60
2018-03-25T15:13:49.670Z,16.60
2018-03-25T15:18:52.215Z,16.60
2018-03-25T15:23:57.032Z,16.30
2018-03-25T15:28:59.563Z,16.30
2018-03-25T15:34:02.133Z,16.20
2018-03-25T15:39:04.674Z,16.00
2018-03-25T15:44:08.017Z,15.80
2018-03-25T15:49:10.581Z,15.80
2018-03-25T15:54:13.910Z,15.60
2018-03-25T15:59:16.488Z,15.50
2018-03-25T16:04:19.106Z,15.40
2018-03-25T16:09:22.422Z,15.10
2018-03-25T16:14:24.983Z,15.10
2018-03-25T16:19:27.550Z,15.00
2018-03-25T16:24:30.137Z,14.90
2018-03-25T16:29:32.728Z,14.80
2018-03-25T16:34:35.242Z,14.60
2018-03-25T16:39:37.798Z,14.40
2018-03-25T16:44:40.374Z,14.30
2018-03-25T16:49:42.942Z,14.10
2018-03-25T16:54:45.487Z,14.00
2018-03-25T16:59:48.070Z,13.90
2018-03-25T17:04:50.636Z,13.70
2018-03-25T17:09:53.230Z,13.50
2018-03-25T17:14:55.770Z,13.40
2018-03-25T17:19:58.338Z,13.20
2018-03-25T17:25:00.892Z,13.10
2018-03-25T17:30:03.442Z,12.90
2018-03-25T17:35:06.615Z,12.70
2018-03-25T17:40:09.946Z,12.30
2018-03-25T17:45:12.510Z,12.30
2018-03-25T17:50:15.098Z,12.10
2018-03-25T17:55:17.672Z,11.90
2018-03-25T18:00:20.234Z,11.70
2018-03-25T18:05:22.795Z,11.50
2018-03-25T18:10:25.379Z,11.30
2018-03-25T18:15:27.920Z,11.10
2018-03-25T18:20:31.245Z,10.70
2018-03-25T18:25:33.814Z,10.70
2018-03-25T18:30:36.373Z,10.50
2018-03-25T18:35:38.944Z,10.40
2018-03-25T18:40:41.519Z,10.20
2018-03-25T18:45:44.084Z,10.00
2018-03-25T18:50:46.629Z,9.90
2018-03-25T18:55:49.178Z,9.70
2018-03-25T19:00:51.720Z,9.50
2018-03-25T19:05:54.277Z,9.40
2018-03-25T19:10:56.828Z,9.20
2018-03-25T19:15:59.370Z,9.00
2018-03-25T19:21:01.924Z,8.90
2018-03-25T19:26:04.463Z,8.70
2018-03-25T19:31:07.009Z,8.60
2018-03-25T19:36:09.554Z,8.40
2018-03-25T19:41:12.091Z,8.30
2018-03-25T19:46:14.638Z,8.20
2018-03-25T19:51:17.178Z,8.00
2018-03-25T19:56:19.723Z,7.90
2018-03-25T20:01:22.262Z,7.80
2018-03-25T20:06:24.903Z,7.60
2018-03-25T20:11:28.216Z,7.40
2018-03-25T20:16:30.747Z,7.30
2018-03-25T20:21:33.281Z,7.20
2018-03-25T20:26:35.831Z,7.10
2018-03-25T20:31:38.366Z,7.00
2018-03-25T20:36:40.907Z,6.90
2018-03-25T20:41:43.451Z,6.80
2018-03-25T20:46:45.994Z,6.70
2018-03-25T20:51:48.545Z,6.60
2018-03-25T20:56:51.080Z,6.50
2018-03-25T21:01:53.618Z,6.40
2018-03-25T21:06:56.167Z,6.30
2018-03-25T21:11:58.711Z,6.30
2018-03-25T21:17:01.251Z,6.20
2018-03-25T21:22:03.806Z,6.10
2018-03-25T21:27:06.422Z,6.10
2018-03-25T21:32:08.955Z,6.00
2018-03-25T21:37:11.486Z,5.90
2018-03-25T21:42:14.034Z,5.90
2018-03-25T21:47:16.562Z,5.80
2018-03-25T21:52:19.097Z,5.70
2018-03-25T21:57:21.687Z,5.70
2018-03-25T22:02:24.214Z,5.60
2018-03-25T22:07:26.745Z,5.50
2018-03-25T22:12:29.295Z,5.50
2018-03-25T22:17:31.829Z,5.40
2018-03-25T22:22:34.358Z,5.30
2018-03-25T22:27:36.903Z,5.30
2018-03-25T22:32:39.442Z,5.20
2018-03-25T22:37:41.986Z,5.10
2018-03-25T22:42:44.538Z,5.10
2018-03-25T22:47:47.078Z,5.00
2018-03-25T22:52:49.609Z,4.90
2018-03-25T22:57:52.142Z,4.80
2018-03-25T23:02:54.678Z,4.80
2018-03-25T23:07:57.212Z,4.70
2018-03-25T23:12:59.756Z,4.60
2018-03-25T23:18:02.291Z,4.60
2018-03-25T23:23:04.821Z,4.50
2018-03-25T23:28:07.374Z,4.40
2018-03-25T23:33:09.898Z,4.30
2018-03-25T23:38:12.425Z,4.30
2018-03-25T23:43:14.953Z,4.20
2018-03-25T23:48:17.491Z,4.10
2018-03-25T23:53:20.026Z,4.10
2018-03-25T23:58:22.561Z,4.00
